sensor_id;sensor_type;location;lat;lon;timestamp;temperature;humidity
22607;DHT22;11470;20.968;105.834;2023-03-31T00:00:06;19.20;99.90
22607;DHT22;11470;20.968;105.834;2023-03-31T00:05:18;19.20;99.90
22607;DHT22;11470;20.968;105.834;2023-03-31T00:10:26;19.30;99.90
22607;DHT22;11470;20.968;105.834;2023-03-31T00:15:31;19.20;99.90
22607;DHT22;11470;20.968;105.834;2023-03-31T00:20:37;19.20;99.90
22607;DHT22;11470;20.968;105.834;2023-03-31T00:25:44;19.30;99.90
22607;DHT22;11470;20.968;105.834;2023-03-31T00:30:49;19.30;99.90
22607;DHT22;11470;20.968;105.834;2023-03-31T00:35:55;19.20;99.90
22607;DHT22;11470;20.968;105.834;2023-03-31T00:41:06;19.30;99.90
22607;DHT22;11470;20.968;105.834;2023-03-31T00:46:26;19.30;99.90
22607;DHT22;11470;20.968;105.834;2023-03-31T00:51:34;19.40;99.90
22607;DHT22;11470;20.968;105.834;2023-03-31T00:56:42;19.40;99.90
22607;DHT22;11470;20.968;105.834;2023-03-31T01:01:49;19.50;99.90
22607;DHT22;11470;20.968;105.834;2023-03-31T01:07:02;19.50;99.90
22607;DHT22;11470;20.968;105.834;2023-03-31T01:12:09;19.50;99.90
22607;DHT22;11470;20.968;105.834;2023-03-31T01:17:18;19.50;99.90
22607;DHT22;11470;20.968;105.834;2023-03-31T01:44:49;19.40;99.90
22607;DHT22;11470;20.968;105.834;2023-03-31T01:50:04;19.40;99.90
22607;DHT22;11470;20.968;105.834;2023-03-31T01:55:21;19.60;99.90
22607;DHT22;11470;20.968;105.834;2023-03-31T02:00:34;19.60;99.90
22607;DHT22;11470;20.968;105.834;2023-03-31T02:05:45;19.60;99.90
22607;DHT22;11470;20.968;105.834;2023-03-31T02:10:53;19.60;99.90
22607;DHT22;11470;20.968;105.834;2023-03-31T02:16:05;19.50;99.90
22607;DHT22;11470;20.968;105.834;2023-03-31T02:21:14;19.80;99.90
22607;DHT22;11470;20.968;105.834;2023-03-31T02:26:24;20.00;99.90
22607;DHT22;11470;20.968;105.834;2023-03-31T02:31:48;20.50;99.90
22607;DHT22;11470;20.968;105.834;2023-03-31T02:36:57;21.70;99.90
22607;DHT22;11470;20.968;105.834;2023-03-31T02:42:03;21.90;99.90
22607;DHT22;11470;20.968;105.834;2023-03-31T02:47:13;21.50;99.90
22607;DHT22;11470;20.968;105.834;2023-03-31T02:52:30;21.30;99.90
22607;DHT22;11470;20.968;105.834;2023-03-31T02:58:15;20.90;99.90
22607;DHT22;11470;20.968;105.834;2023-03-31T03:14:13;21.40;99.90
22607;DHT22;11470;20.968;105.834;2023-03-31T03:19:24;21.60;99.90
22607;DHT22;11470;20.968;105.834;2023-03-31T03:24:32;21.70;99.90
22607;DHT22;11470;20.968;105.834;2023-03-31T03:29:39;21.50;99.90
22607;DHT22;11470;20.968;105.834;2023-03-31T03:34:45;21.40;99.90
22607;DHT22;11470;20.968;105.834;2023-03-31T03:39:51;21.30;99.90
22607;DHT22;11470;20.968;105.834;2023-03-31T03:44:57;21.10;99.90
22607;DHT22;11470;20.968;105.834;2023-03-31T03:50:04;21.20;99.90
22607;DHT22;11470;20.968;105.834;2023-03-31T03:55:10;21.30;99.90
22607;DHT22;11470;20.968;105.834;2023-03-31T04:00:17;21.50;99.90
22607;DHT22;11470;20.968;105.834;2023-03-31T04:05:23;21.50;99.90
22607;DHT22;11470;20.968;105.834;2023-03-31T04:10:32;21.40;99.90
22607;DHT22;11470;20.968;105.834;2023-03-31T04:15:39;21.30;99.90
22607;DHT22;11470;20.968;105.834;2023-03-31T04:20:45;21.20;99.90
22607;DHT22;11470;20.968;105.834;2023-03-31T04:25:59;21.10;99.90
22607;DHT22;11470;20.968;105.834;2023-03-31T04:31:08;21.20;99.90
22607;DHT22;11470;20.968;105.834;2023-03-31T04:36:15;21.20;99.90
22607;DHT22;11470;20.968;105.834;2023-03-31T04:41:24;21.20;99.90
22607;DHT22;11470;20.968;105.834;2023-03-31T04:46:35;21.30;99.90
22607;DHT22;11470;20.968;105.834;2023-03-31T04:51:41;21.40;99.90
22607;DHT22;11470;20.968;105.834;2023-03-31T04:56:49;21.40;99.90
22607;DHT22;11470;20.968;105.834;2023-03-31T05:01:56;21.40;99.90
22607;DHT22;11470;20.968;105.834;2023-03-31T05:07:02;21.50;99.90
22607;DHT22;11470;20.968;105.834;2023-03-31T05:12:10;21.50;99.90
22607;DHT22;11470;20.968;105.834;2023-03-31T05:17:16;21.60;99.90
22607;DHT22;11470;20.968;105.834;2023-03-31T05:22:23;21.80;99.90
22607;DHT22;11470;20.968;105.834;2023-03-31T05:27:29;22.00;99.90
22607;DHT22;11470;20.968;105.834;2023-03-31T05:32:35;22.10;99.90
22607;DHT22;11470;20.968;105.834;2023-03-31T05:37:44;22.10;99.90
22607;DHT22;11470;20.968;105.834;2023-03-31T05:42:50;22.30;99.90
22607;DHT22;11470;20.968;105.834;2023-03-31T05:47:56;22.60;99.90
22607;DHT22;11470;20.968;105.834;2023-03-31T05:53:02;22.80;99.90
22607;DHT22;11470;20.968;105.834;2023-03-31T05:58:08;22.80;99.90
22607;DHT22;11470;20.968;105.834;2023-03-31T06:03:18;22.60;99.90
22607;DHT22;11470;20.968;105.834;2023-03-31T06:08:24;22.10;99.90
22607;DHT22;11470;20.968;105.834;2023-03-31T06:13:31;22.00;99.90
22607;DHT22;11470;20.968;105.834;2023-03-31T06:18:38;21.90;99.90
22607;DHT22;11470;20.968;105.834;2023-03-31T06:23:45;22.00;99.90
22607;DHT22;11470;20.968;105.834;2023-03-31T06:28:52;22.10;99.90
22607;DHT22;11470;20.968;105.834;2023-03-31T06:33:59;22.00;99.90
22607;DHT22;11470;20.968;105.834;2023-03-31T06:39:06;21.80;99.90
22607;DHT22;11470;20.968;105.834;2023-03-31T06:44:11;21.90;99.90
22607;DHT22;11470;20.968;105.834;2023-03-31T06:49:21;22.00;99.90
22607;DHT22;11470;20.968;105.834;2023-03-31T06:54:26;22.20;99.90
22607;DHT22;11470;20.968;105.834;2023-03-31T06:59:33;22.40;99.90
22607;DHT22;11470;20.968;105.834;2023-03-31T07:04:39;22.60;99.90
22607;DHT22;11470;20.968;105.834;2023-03-31T07:09:49;22.60;99.90
22607;DHT22;11470;20.968;105.834;2023-03-31T07:14:59;22.60;99.90
22607;DHT22;11470;20.968;105.834;2023-03-31T07:20:13;22.50;99.90
22607;DHT22;11470;20.968;105.834;2023-03-31T07:25:19;22.50;99.90
22607;DHT22;11470;20.968;105.834;2023-03-31T07:30:26;22.50;99.90
22607;DHT22;11470;20.968;105.834;2023-03-31T07:35:32;22.50;99.90
22607;DHT22;11470;20.968;105.834;2023-03-31T07:40:40;22.50;99.90
22607;DHT22;11470;20.968;105.834;2023-03-31T07:45:46;22.60;99.90
22607;DHT22;11470;20.968;105.834;2023-03-31T07:50:53;22.70;99.90
22607;DHT22;11470;20.968;105.834;2023-03-31T07:56:06;22.80;99.90
22607;DHT22;11470;20.968;105.834;2023-03-31T08:01:17;22.80;99.90
22607;DHT22;11470;20.968;105.834;2023-03-31T08:06:25;22.70;99.90
22607;DHT22;11470;20.968;105.834;2023-03-31T08:11:34;22.70;99.90
22607;DHT22;11470;20.968;105.834;2023-03-31T08:16:41;22.50;99.90
22607;DHT22;11470;20.968;105.834;2023-03-31T08:21:48;22.40;99.90
22607;DHT22;11470;20.968;105.834;2023-03-31T08:26:56;22.30;99.90
22607;DHT22;11470;20.968;105.834;2023-03-31T08:32:02;22.20;99.90
22607;DHT22;11470;20.968;105.834;2023-03-31T08:37:09;22.10;99.90
22607;DHT22;11470;20.968;105.834;2023-03-31T08:42:20;22.20;99.90
22607;DHT22;11470;20.968;105.834;2023-03-31T08:47:32;22.20;99.90
22607;DHT22;11470;20.968;105.834;2023-03-31T08:52:43;22.20;99.90
22607;DHT22;11470;20.968;105.834;2023-03-31T09:03:23;22.30;99.90
22607;DHT22;11470;20.968;105.834;2023-03-31T09:08:37;22.30;99.90
22607;DHT22;11470;20.968;105.834;2023-03-31T09:14:17;22.20;99.90
22607;DHT22;11470;20.968;105.834;2023-03-31T09:25:13;22.10;99.90
22607;DHT22;11470;20.968;105.834;2023-03-31T09:30:28;22.10;99.90
22607;DHT22;11470;20.968;105.834;2023-03-31T09:35:35;22.10;99.90
22607;DHT22;11470;20.968;105.834;2023-03-31T09:40:42;22.00;99.90
22607;DHT22;11470;20.968;105.834;2023-03-31T09:45:50;21.90;99.90
22607;DHT22;11470;20.968;105.834;2023-03-31T09:51:19;21.80;99.90
22607;DHT22;11470;20.968;105.834;2023-03-31T09:56:48;21.70;99.90
22607;DHT22;11470;20.968;105.834;2023-03-31T10:02:02;21.70;99.90
22607;DHT22;11470;20.968;105.834;2023-03-31T10:07:11;21.70;99.90
22607;DHT22;11470;20.968;105.834;2023-03-31T10:12:25;21.60;99.90
22607;DHT22;11470;20.968;105.834;2023-03-31T10:17:35;21.60;99.90
22607;DHT22;11470;20.968;105.834;2023-03-31T10:23:14;21.50;99.90
22607;DHT22;11470;20.968;105.834;2023-03-31T10:28:21;21.50;99.90
22607;DHT22;11470;20.968;105.834;2023-03-31T10:33:32;21.40;99.90
22607;DHT22;11470;20.968;105.834;2023-03-31T10:38:43;21.40;99.90
22607;DHT22;11470;20.968;105.834;2023-03-31T10:44:05;21.40;99.90
22607;DHT22;11470;20.968;105.834;2023-03-31T10:49:24;21.40;99.90
22607;DHT22;11470;20.968;105.834;2023-03-31T11:00:11;21.40;99.90
22607;DHT22;11470;20.968;105.834;2023-03-31T11:28:19;21.20;99.90
22607;DHT22;11470;20.968;105.834;2023-03-31T11:45:18;21.10;99.90
22607;DHT22;11470;20.968;105.834;2023-03-31T11:50:48;21.10;99.90
22607;DHT22;11470;20.968;105.834;2023-03-31T11:55:59;21.10;99.90
22607;DHT22;11470;20.968;105.834;2023-03-31T12:01:20;21.10;99.90
22607;DHT22;11470;20.968;105.834;2023-03-31T12:06:37;21.10;99.90
22607;DHT22;11470;20.968;105.834;2023-03-31T12:12:00;21.10;99.90
22607;DHT22;11470;20.968;105.834;2023-03-31T12:17:17;21.10;99.90
22607;DHT22;11470;20.968;105.834;2023-03-31T12:22:33;21.00;99.90
22607;DHT22;11470;20.968;105.834;2023-03-31T12:27:46;20.90;99.90
22607;DHT22;11470;20.968;105.834;2023-03-31T12:33:21;20.90;99.90
22607;DHT22;11470;20.968;105.834;2023-03-31T12:38:49;20.90;99.90
22607;DHT22;11470;20.968;105.834;2023-03-31T13:01:22;21.00;99.90
22607;DHT22;11470;20.968;105.834;2023-03-31T13:06:51;21.00;99.90
22607;DHT22;11470;20.968;105.834;2023-03-31T13:12:18;20.80;99.90
22607;DHT22;11470;20.968;105.834;2023-03-31T13:17:55;20.70;99.90
22607;DHT22;11470;20.968;105.834;2023-03-31T13:23:21;20.70;99.90
22607;DHT22;11470;20.968;105.834;2023-03-31T13:28:48;20.70;99.90
22607;DHT22;11470;20.968;105.834;2023-03-31T13:34:17;20.70;99.90
22607;DHT22;11470;20.968;105.834;2023-03-31T14:07:39;20.80;99.90
22607;DHT22;11470;20.968;105.834;2023-03-31T14:18:32;20.90;99.90
22607;DHT22;11470;20.968;105.834;2023-03-31T14:24:21;20.90;99.90
22607;DHT22;11470;20.968;105.834;2023-03-31T14:35:58;20.90;99.90
22607;DHT22;11470;20.968;105.834;2023-03-31T14:41:20;21.00;99.90
22607;DHT22;11470;20.968;105.834;2023-03-31T14:46:42;20.90;99.90
22607;DHT22;11470;20.968;105.834;2023-03-31T14:52:17;20.90;99.90
22607;DHT22;11470;20.968;105.834;2023-03-31T14:57:33;20.90;99.90
22607;DHT22;11470;20.968;105.834;2023-03-31T15:02:46;20.90;99.90
22607;DHT22;11470;20.968;105.834;2023-03-31T15:07:58;20.90;99.90
22607;DHT22;11470;20.968;105.834;2023-03-31T15:13:19;20.90;99.90
22607;DHT22;11470;20.968;105.834;2023-03-31T15:18:32;20.90;99.90
22607;DHT22;11470;20.968;105.834;2023-03-31T15:23:40;20.90;99.90
22607;DHT22;11470;20.968;105.834;2023-03-31T15:28:54;20.90;99.90
22607;DHT22;11470;20.968;105.834;2023-03-31T15:34:28;21.00;99.90
22607;DHT22;11470;20.968;105.834;2023-03-31T15:39:47;20.90;99.90
22607;DHT22;11470;20.968;105.834;2023-03-31T15:50:28;20.90;99.90
22607;DHT22;11470;20.968;105.834;2023-03-31T15:55:42;20.80;99.90
22607;DHT22;11470;20.968;105.834;2023-03-31T16:01:00;20.70;99.90
22607;DHT22;11470;20.968;105.834;2023-03-31T16:12:09;20.60;99.90
22607;DHT22;11470;20.968;105.834;2023-03-31T16:17:29;20.50;99.90
22607;DHT22;11470;20.968;105.834;2023-03-31T16:22:43;20.40;99.90
22607;DHT22;11470;20.968;105.834;2023-03-31T16:27:53;20.40;99.90
22607;DHT22;11470;20.968;105.834;2023-03-31T16:33:10;20.30;99.90
22607;DHT22;11470;20.968;105.834;2023-03-31T16:38:22;20.30;99.90
22607;DHT22;11470;20.968;105.834;2023-03-31T16:43:30;20.30;99.90
22607;DHT22;11470;20.968;105.834;2023-03-31T16:48:41;20.30;99.90
22607;DHT22;11470;20.968;105.834;2023-03-31T16:53:47;20.30;99.90
22607;DHT22;11470;20.968;105.834;2023-03-31T16:58:53;20.30;99.90
22607;DHT22;11470;20.968;105.834;2023-03-31T17:04:00;20.30;99.90
22607;DHT22;11470;20.968;105.834;2023-03-31T17:09:06;20.20;99.90
22607;DHT22;11470;20.968;105.834;2023-03-31T17:14:13;20.20;99.90
22607;DHT22;11470;20.968;105.834;2023-03-31T17:19:18;20.20;99.90
22607;DHT22;11470;20.968;105.834;2023-03-31T17:24:25;20.20;99.90
22607;DHT22;11470;20.968;105.834;2023-03-31T17:29:31;20.20;99.90
22607;DHT22;11470;20.968;105.834;2023-03-31T17:34:37;20.20;99.90
22607;DHT22;11470;20.968;105.834;2023-03-31T17:39:44;20.10;99.90
22607;DHT22;11470;20.968;105.834;2023-03-31T17:44:50;20.20;99.90
22607;DHT22;11470;20.968;105.834;2023-03-31T17:49:57;20.10;99.90
22607;DHT22;11470;20.968;105.834;2023-03-31T17:55:03;20.10;99.90
22607;DHT22;11470;20.968;105.834;2023-03-31T18:00:10;20.10;99.90
22607;DHT22;11470;20.968;105.834;2023-03-31T18:05:18;20.10;99.90
22607;DHT22;11470;20.968;105.834;2023-03-31T18:10:24;20.10;99.90
22607;DHT22;11470;20.968;105.834;2023-03-31T18:15:31;20.00;99.90
22607;DHT22;11470;20.968;105.834;2023-03-31T18:20:36;20.00;99.90
22607;DHT22;11470;20.968;105.834;2023-03-31T18:25:43;20.00;99.90
22607;DHT22;11470;20.968;105.834;2023-03-31T18:30:51;20.00;99.90
22607;DHT22;11470;20.968;105.834;2023-03-31T18:35:58;20.00;99.90
22607;DHT22;11470;20.968;105.834;2023-03-31T18:41:04;20.10;99.90
22607;DHT22;11470;20.968;105.834;2023-03-31T18:46:11;20.10;99.90
22607;DHT22;11470;20.968;105.834;2023-03-31T18:51:17;20.10;99.90
22607;DHT22;11470;20.968;105.834;2023-03-31T18:56:23;20.00;99.90
22607;DHT22;11470;20.968;105.834;2023-03-31T19:01:28;20.10;99.90
22607;DHT22;11470;20.968;105.834;2023-03-31T19:06:36;20.10;99.90
22607;DHT22;11470;20.968;105.834;2023-03-31T19:11:41;20.10;99.90
22607;DHT22;11470;20.968;105.834;2023-03-31T19:16:47;20.10;99.90
22607;DHT22;11470;20.968;105.834;2023-03-31T19:21:53;20.10;99.90
22607;DHT22;11470;20.968;105.834;2023-03-31T19:26:58;20.10;99.90
22607;DHT22;11470;20.968;105.834;2023-03-31T19:32:05;20.00;99.90
22607;DHT22;11470;20.968;105.834;2023-03-31T19:37:11;20.10;99.90
22607;DHT22;11470;20.968;105.834;2023-03-31T19:42:17;20.10;99.90
22607;DHT22;11470;20.968;105.834;2023-03-31T19:47:22;20.10;99.90
22607;DHT22;11470;20.968;105.834;2023-03-31T19:52:28;20.10;99.90
22607;DHT22;11470;20.968;105.834;2023-03-31T19:57:34;20.10;99.90
22607;DHT22;11470;20.968;105.834;2023-03-31T20:02:40;20.10;99.90
22607;DHT22;11470;20.968;105.834;2023-03-31T20:07:46;20.10;99.90
22607;DHT22;11470;20.968;105.834;2023-03-31T20:12:52;20.10;99.90
22607;DHT22;11470;20.968;105.834;2023-03-31T20:17:58;20.10;99.90
22607;DHT22;11470;20.968;105.834;2023-03-31T20:23:04;20.10;99.90
22607;DHT22;11470;20.968;105.834;2023-03-31T20:28:10;20.00;99.90
22607;DHT22;11470;20.968;105.834;2023-03-31T20:33:15;20.00;99.90
22607;DHT22;11470;20.968;105.834;2023-03-31T20:38:24;19.90;99.90
22607;DHT22;11470;20.968;105.834;2023-03-31T20:43:29;19.90;99.90
22607;DHT22;11470;20.968;105.834;2023-03-31T20:48:40;19.90;99.90
22607;DHT22;11470;20.968;105.834;2023-03-31T20:53:48;19.90;99.90
22607;DHT22;11470;20.968;105.834;2023-03-31T20:58:55;19.90;99.90
22607;DHT22;11470;20.968;105.834;2023-03-31T21:04:32;19.90;99.90
22607;DHT22;11470;20.968;105.834;2023-03-31T21:09:38;19.90;99.90
22607;DHT22;11470;20.968;105.834;2023-03-31T21:14:44;19.90;99.90
22607;DHT22;11470;20.968;105.834;2023-03-31T21:19:50;19.90;99.90
22607;DHT22;11470;20.968;105.834;2023-03-31T21:24:56;19.90;99.90
22607;DHT22;11470;20.968;105.834;2023-03-31T21:30:02;19.90;99.90
22607;DHT22;11470;20.968;105.834;2023-03-31T21:35:08;19.90;99.90
22607;DHT22;11470;20.968;105.834;2023-03-31T21:40:13;19.90;99.90
22607;DHT22;11470;20.968;105.834;2023-03-31T21:45:20;19.90;99.90
22607;DHT22;11470;20.968;105.834;2023-03-31T21:50:39;19.90;99.90
22607;DHT22;11470;20.968;105.834;2023-03-31T21:55:46;20.00;99.90
22607;DHT22;11470;20.968;105.834;2023-03-31T22:00:53;20.00;99.90
22607;DHT22;11470;20.968;105.834;2023-03-31T22:06:00;20.00;99.90
22607;DHT22;11470;20.968;105.834;2023-03-31T22:11:08;20.00;99.90
22607;DHT22;11470;20.968;105.834;2023-03-31T22:16:19;20.00;99.90
22607;DHT22;11470;20.968;105.834;2023-03-31T22:21:27;20.00;99.90
22607;DHT22;11470;20.968;105.834;2023-03-31T22:26:33;20.00;99.90
22607;DHT22;11470;20.968;105.834;2023-03-31T22:31:38;20.00;99.90
22607;DHT22;11470;20.968;105.834;2023-03-31T22:36:45;20.00;99.90
22607;DHT22;11470;20.968;105.834;2023-03-31T22:41:50;20.00;99.90
22607;DHT22;11470;20.968;105.834;2023-03-31T22:46:56;20.00;99.90
22607;DHT22;11470;20.968;105.834;2023-03-31T22:52:02;20.00;99.90
22607;DHT22;11470;20.968;105.834;2023-03-31T22:57:08;20.00;99.90
22607;DHT22;11470;20.968;105.834;2023-03-31T23:02:14;20.00;99.90
22607;DHT22;11470;20.968;105.834;2023-03-31T23:07:20;20.00;99.90
22607;DHT22;11470;20.968;105.834;2023-03-31T23:12:26;20.00;99.90
22607;DHT22;11470;20.968;105.834;2023-03-31T23:17:31;20.00;99.90
22607;DHT22;11470;20.968;105.834;2023-03-31T23:22:36;20.00;99.90
22607;DHT22;11470;20.968;105.834;2023-03-31T23:27:43;20.10;99.90
22607;DHT22;11470;20.968;105.834;2023-03-31T23:32:48;20.10;99.90
22607;DHT22;11470;20.968;105.834;2023-03-31T23:37:57;20.10;99.90
22607;DHT22;11470;20.968;105.834;2023-03-31T23:43:03;20.10;99.90
22607;DHT22;11470;20.968;105.834;2023-03-31T23:48:08;20.10;99.90
22607;DHT22;11470;20.968;105.834;2023-03-31T23:53:15;20.10;99.90
22607;DHT22;11470;20.968;105.834;2023-03-31T23:58:21;20.20;99.90
